Terminal Aerodrome Forecast
Issued by NWS

Home | Current Version | Previous Version | Text Only | Print | Product List | Glossary On
Versions: 1 2 3 4 5 6 7 8 9 10 11 12 13 14 15 16 17 18
000
FTUS45 KGJT 231131
TAFCNY
TAF
KCNY 231131Z 2312/2412 28012KT P6SM FEW150
     FM231600 29015G25KT P6SM BKN150
     FM232300 30012G20KT P6SM FEW150
     FM240600 27005KT P6SM SKC=

USA.gov is the U.S. government's official web portal to all federal, state and local government web resources and services.